createdAt,value
2023-02-19T00:01:51.658Z,101665.77
2023-02-19T00:04:08.190Z,101676.73
2023-02-19T00:06:21.820Z,101674.44
2023-02-19T00:08:36.001Z,101680.53
2023-02-19T00:10:52.156Z,101687.52
2023-02-19T00:13:06.324Z,101692.09
2023-02-19T00:15:19.447Z,101694.80
2023-02-19T00:17:33.994Z,101691.63
2023-02-19T00:19:47.389Z,101692.38
2023-02-19T00:22:00.509Z,101699.41
2023-02-19T00:24:14.904Z,101704.33
2023-02-19T00:26:28.847Z,101704.91
2023-02-19T00:28:42.051Z,101705.42
2023-02-19T00:30:54.895Z,101708.92
2023-02-19T00:33:08.401Z,101704.83
2023-02-19T00:35:21.147Z,101706.85
2023-02-19T00:37:33.711Z,101704.52
2023-02-19T00:39:46.225Z,101712.48
2023-02-19T00:42:00.481Z,101713.73
2023-02-19T00:44:18.066Z,101721.62
2023-02-19T00:46:36.145Z,101714.15
2023-02-19T00:48:48.982Z,101710.13
2023-02-19T00:51:01.611Z,101712.81
2023-02-19T00:53:14.579Z,101712.17
2023-02-19T00:55:27.603Z,101715.74
2023-02-19T00:57:40.708Z,101719.75
2023-02-19T00:59:53.819Z,101720.08
2023-02-19T01:02:07.763Z,101715.42
2023-02-19T01:04:21.209Z,101717.48
2023-02-19T01:06:34.100Z,101714.54
2023-02-19T01:08:47.672Z,101719.08
2023-02-19T01:11:01.609Z,101725.19
2023-02-19T01:13:14.369Z,101729.67
2023-02-19T01:15:27.276Z,101732.95
2023-02-19T01:17:41.183Z,101741.38
2023-02-19T01:19:54.077Z,101751.94
2023-02-19T01:22:06.619Z,101756.61
2023-02-19T01:24:19.749Z,101758.42
2023-02-19T01:26:39.374Z,101759.76
2023-02-19T01:28:53.782Z,101764.56
2023-02-19T01:31:11.070Z,101776.27
2023-02-19T01:33:25.414Z,101778.91
2023-02-19T01:35:41.721Z,101786.37
2023-02-19T01:37:55.734Z,101787.02
2023-02-19T01:40:09.242Z,101793.11
2023-02-19T01:42:26.811Z,101792.30
2023-02-19T01:45:28.205Z,101796.71
2023-02-19T01:47:42.318Z,101798.23
2023-02-19T01:50:01.801Z,101803.54
2023-02-19T01:52:19.278Z,101803.89
2023-02-19T01:54:35.691Z,101808.31
2023-02-19T01:56:51.828Z,101811.61
2023-02-19T01:59:06.606Z,101812.33
2023-02-19T02:01:20.067Z,101815.66
2023-02-19T02:03:36.070Z,101807.61
2023-02-19T02:05:53.669Z,101801.20
2023-02-19T02:08:25.070Z,101799.64
2023-02-19T02:10:40.301Z,101808.27
2023-02-19T02:12:56.149Z,101813.77
2023-02-19T02:15:13.313Z,101812.64
2023-02-19T02:17:33.442Z,101827.92
2023-02-19T02:20:21.284Z,101827.81
2023-02-19T02:22:38.308Z,101821.59
2023-02-19T02:25:30.854Z,101825.17
2023-02-19T02:27:57.688Z,101824.88
2023-02-19T02:30:41.437Z,101822.04
2023-02-19T02:33:05.193Z,101826.08
2023-02-19T02:35:22.009Z,101826.95
2023-02-19T02:37:39.006Z,101833.27
2023-02-19T02:39:54.407Z,101832.09
2023-02-19T02:42:25.327Z,101829.80
2023-02-19T02:45:04.560Z,101835.43
2023-02-19T02:47:33.102Z,101832.70
2023-02-19T02:50:06.281Z,101838.55
2023-02-19T02:52:40.061Z,101841.30
2023-02-19T02:55:09.817Z,101859.61
2023-02-19T02:57:24.160Z,101868.10
2023-02-19T02:59:43.773Z,101875.34
2023-02-19T03:02:15.677Z,101883.83
2023-02-19T03:04:32.888Z,101890.75
2023-02-19T03:06:50.284Z,101896.44
2023-02-19T03:09:10.064Z,101892.58
2023-02-19T03:11:39.267Z,101896.71
2023-02-19T03:14:19.820Z,101884.88
2023-02-19T03:16:51.419Z,101888.77
2023-02-19T03:19:26.618Z,101887.03
2023-02-19T03:21:44.356Z,101884.38
2023-02-19T03:24:13.477Z,101883.91
2023-02-19T03:26:29.008Z,101895.81
2023-02-19T03:29:00.335Z,101898.66
2023-02-19T03:31:19.254Z,101897.80
2023-02-19T03:33:35.342Z,101905.63
2023-02-19T03:35:54.630Z,101903.27
2023-02-19T03:38:12.720Z,101908.85
2023-02-19T03:40:30.000Z,101909.71
2023-02-19T03:42:55.845Z,101907.10
2023-02-19T03:45:37.823Z,101909.90
2023-02-19T03:47:57.886Z,101918.31
2023-02-19T03:50:18.766Z,101922.83
2023-02-19T03:52:42.480Z,101925.27
2023-02-19T03:55:01.819Z,101934.48
2023-02-19T03:57:24.221Z,101938.38
2023-02-19T03:59:46.884Z,101947.24
2023-02-19T04:02:04.676Z,101951.43
2023-02-19T04:04:22.257Z,101951.51
2023-02-19T04:06:37.423Z,101941.80
2023-02-19T04:08:55.832Z,101930.06
2023-02-19T04:11:10.079Z,101923.81
2023-02-19T04:13:30.878Z,101926.11
2023-02-19T04:15:48.472Z,101935.31
2023-02-19T04:18:04.190Z,101946.86
2023-02-19T04:20:20.537Z,101945.32
2023-02-19T04:22:34.514Z,101952.42
2023-02-19T04:24:51.197Z,101952.53
2023-02-19T04:27:04.552Z,101960.92
2023-02-19T04:29:17.607Z,101963.54
2023-02-19T04:31:36.211Z,101957.10
2023-02-19T04:33:51.313Z,101956.58
2023-02-19T04:36:05.877Z,101961.90
2023-02-19T04:38:19.388Z,101962.85
2023-02-19T04:40:32.346Z,101973.85
2023-02-19T04:42:45.986Z,101975.77
2023-02-19T04:45:00.036Z,101977.73
2023-02-19T04:47:13.608Z,101986.99
2023-02-19T04:49:27.403Z,101995.43
2023-02-19T04:51:40.668Z,102004.98
2023-02-19T04:53:55.112Z,102010.75
2023-02-19T04:56:14.370Z,102024.14
2023-02-19T04:58:28.199Z,102029.93
2023-02-19T05:00:41.431Z,102038.80
2023-02-19T05:02:54.428Z,102040.90
2023-02-19T05:05:07.583Z,102042.67
2023-02-19T05:07:23.194Z,102039.05
2023-02-19T05:09:36.349Z,102033.75
2023-02-19T05:11:49.581Z,102042.67
2023-02-19T05:14:05.218Z,102045.27
2023-02-19T05:16:22.514Z,102052.12
2023-02-19T05:18:36.272Z,102059.78
2023-02-19T05:20:48.903Z,102061.10
2023-02-19T05:23:02.169Z,102068.61
2023-02-19T05:25:15.334Z,102069.20
2023-02-19T05:27:28.929Z,102073.95
2023-02-19T05:29:41.500Z,102073.39
2023-02-19T05:31:54.114Z,102075.77
2023-02-19T05:34:07.653Z,102075.77
2023-02-19T05:36:22.680Z,102073.77
2023-02-19T05:38:35.556Z,102076.90
2023-02-19T05:40:49.306Z,102072.88
2023-02-19T05:43:01.807Z,102077.27
2023-02-19T05:45:15.544Z,102074.23
2023-02-19T05:47:29.142Z,102075.90
2023-02-19T05:49:41.638Z,102079.96
2023-02-19T05:51:55.999Z,102081.45
2023-02-19T05:54:09.371Z,102082.85
2023-02-19T05:56:34.492Z,102081.88
2023-02-19T05:58:48.502Z,102086.64
2023-02-19T06:01:02.479Z,102096.32
2023-02-19T06:03:16.367Z,102097.02
2023-02-19T06:05:29.339Z,102096.80
2023-02-19T06:07:43.829Z,102101.11
2023-02-19T06:10:00.806Z,102097.20
2023-02-19T06:12:14.599Z,102100.45
2023-02-19T06:14:29.649Z,102103.20
2023-02-19T06:16:43.971Z,102101.91
2023-02-19T06:18:57.915Z,102103.89
2023-02-19T06:21:13.261Z,102100.66
2023-02-19T06:23:26.388Z,102093.27
2023-02-19T06:25:39.033Z,102098.98
2023-02-19T06:27:52.134Z,102098.48
2023-02-19T06:30:06.302Z,102105.02
2023-02-19T06:32:19.293Z,102107.22
2023-02-19T06:34:33.787Z,102105.41
2023-02-19T06:36:47.795Z,102100.66
2023-02-19T06:39:06.669Z,102103.13
2023-02-19T06:41:21.333Z,102109.09
2023-02-19T06:43:35.340Z,102111.69
2023-02-19T06:45:49.085Z,102110.42
2023-02-19T06:48:02.346Z,102111.80
2023-02-19T06:50:16.605Z,102114.67
2023-02-19T06:52:30.144Z,102113.09
2023-02-19T06:54:43.416Z,102111.27
2023-02-19T06:57:00.157Z,102102.17
2023-02-19T06:59:17.896Z,102089.88
2023-02-19T07:01:31.884Z,102085.43
2023-02-19T07:03:46.204Z,102085.46
2023-02-19T07:06:05.433Z,102090.13
2023-02-19T07:08:19.792Z,102088.04
2023-02-19T07:10:33.771Z,102093.27
2023-02-19T07:12:47.130Z,102100.40
2023-02-19T07:15:01.603Z,102098.17
2023-02-19T07:17:15.002Z,102102.48
2023-02-19T07:19:27.912Z,102100.48
2023-02-19T07:21:40.460Z,102099.29
2023-02-19T07:23:54.858Z,102087.91
2023-02-19T07:26:08.814Z,102090.10
2023-02-19T07:28:22.096Z,102095.12
2023-02-19T07:30:38.588Z,102103.55
2023-02-19T07:32:51.305Z,102105.63
2023-02-19T07:35:04.385Z,102105.14
2023-02-19T07:37:17.805Z,102097.28
2023-02-19T07:39:31.584Z,102100.17
2023-02-19T07:41:45.485Z,102091.15
2023-02-19T07:44:10.839Z,102079.67
2023-02-19T07:46:24.110Z,102078.92
2023-02-19T07:48:38.167Z,102069.25
2023-02-19T07:50:57.220Z,102060.41
2023-02-19T07:53:10.958Z,102064.01
2023-02-19T07:55:24.255Z,102065.92
2023-02-19T07:57:37.101Z,102063.92
2023-02-19T07:59:50.833Z,102068.59
2023-02-19T08:02:20.578Z,102080.05
2023-02-19T08:04:33.228Z,102093.39
2023-02-19T08:06:46.690Z,102100.33
2023-02-19T08:08:59.578Z,102107.15
2023-02-19T08:11:30.486Z,102108.17
2023-02-19T08:13:44.095Z,102099.54
2023-02-19T08:16:16.076Z,102088.30
2023-02-19T08:18:32.051Z,102094.24
2023-02-19T08:20:44.634Z,102082.35
2023-02-19T08:22:57.230Z,102089.73
2023-02-19T08:25:11.288Z,102103.43
2023-02-19T08:27:23.987Z,102117.80
2023-02-19T08:29:36.943Z,102116.41
2023-02-19T08:31:50.107Z,102107.44
2023-02-19T08:34:03.880Z,102101.48
2023-02-19T08:36:17.997Z,102107.27
2023-02-19T08:38:31.172Z,102118.59
2023-02-19T08:40:44.671Z,102121.63
2023-02-19T08:42:57.399Z,102125.19
2023-02-19T08:45:11.230Z,102124.20
2023-02-19T08:47:24.003Z,102127.21
2023-02-19T08:49:36.638Z,102132.05
2023-02-19T08:51:49.150Z,102133.59
2023-02-19T08:54:01.891Z,102134.14
2023-02-19T08:56:15.992Z,102134.02
2023-02-19T08:58:29.097Z,102134.39
2023-02-19T09:00:41.903Z,102131.88
2023-02-19T09:02:54.876Z,102127.17
2023-02-19T09:05:09.356Z,102130.13
2023-02-19T09:07:24.229Z,102130.16
2023-02-19T09:09:39.899Z,102130.19
2023-02-19T09:11:53.083Z,102134.83
2023-02-19T09:14:08.522Z,102136.27
2023-02-19T09:16:22.217Z,102137.39
2023-02-19T09:18:36.837Z,102140.63
2023-02-19T09:20:50.542Z,102145.22
2023-02-19T09:23:09.179Z,102149.73
2023-02-19T09:25:22.758Z,102151.10
2023-02-19T09:27:36.193Z,102152.13
2023-02-19T09:29:49.676Z,102153.22
2023-02-19T09:32:05.316Z,102164.29
2023-02-19T09:34:18.961Z,102167.60
2023-02-19T09:36:32.081Z,102166.45
2023-02-19T09:38:46.225Z,102169.11
2023-02-19T09:40:59.630Z,102165.30
2023-02-19T09:43:20.454Z,102161.29
2023-02-19T09:45:34.362Z,102160.20
2023-02-19T09:47:50.270Z,102153.84
2023-02-19T09:50:08.698Z,102148.71
2023-02-19T09:52:29.437Z,102149.40
2023-02-19T09:54:43.991Z,102151.52
2023-02-19T09:56:58.248Z,102152.59
2023-02-19T09:59:21.880Z,102158.02
2023-02-19T10:01:43.164Z,102172.36
2023-02-19T10:03:57.300Z,102176.77
2023-02-19T10:06:18.002Z,102184.20
2023-02-19T10:08:35.117Z,102189.51
2023-02-19T10:10:49.868Z,102191.02
2023-02-19T10:13:14.909Z,102192.01
2023-02-19T10:15:33.173Z,102203.41
2023-02-19T10:17:46.721Z,102203.56
2023-02-19T10:19:59.997Z,102200.89
2023-02-19T10:22:15.192Z,102199.07
2023-02-19T10:24:33.464Z,102201.78
2023-02-19T10:26:46.676Z,102200.31
2023-02-19T10:29:00.401Z,102199.93
2023-02-19T10:31:22.416Z,102193.20
2023-02-19T10:33:51.084Z,102190.42
2023-02-19T10:36:06.797Z,102194.93
2023-02-19T10:38:24.757Z,102197.80
2023-02-19T10:40:39.146Z,102197.15
2023-02-19T10:42:56.698Z,102199.35
2023-02-19T10:45:20.240Z,102204.80
2023-02-19T10:47:36.923Z,102199.10
2023-02-19T10:49:51.712Z,102199.08
2023-02-19T10:52:18.858Z,102198.73
2023-02-19T10:54:36.669Z,102206.36
2023-02-19T10:56:50.347Z,102216.13
2023-02-19T10:59:31.283Z,102209.55
2023-02-19T11:01:56.255Z,102210.28
2023-02-19T11:04:23.746Z,102210.04
2023-02-19T11:06:36.968Z,102206.88
2023-02-19T11:09:02.173Z,102210.73
2023-02-19T11:11:24.481Z,102209.64
2023-02-19T11:13:39.164Z,102204.79
2023-02-19T11:15:58.401Z,102204.58
2023-02-19T11:18:24.823Z,102212.39
2023-02-19T11:20:38.794Z,102205.75
2023-02-19T11:22:52.708Z,102200.59
2023-02-19T11:25:11.482Z,102205.35
2023-02-19T11:27:28.469Z,102199.80
2023-02-19T11:29:45.601Z,102187.90
2023-02-19T11:32:00.207Z,102196.41
2023-02-19T11:34:32.358Z,102198.17
2023-02-19T11:36:46.767Z,102210.27
2023-02-19T11:39:01.201Z,102211.57
2023-02-19T11:41:26.159Z,102210.36
2023-02-19T11:43:57.298Z,102188.63
2023-02-19T11:46:17.150Z,102182.48
2023-02-19T11:48:45.225Z,102183.71
2023-02-19T11:51:08.837Z,102180.65
2023-02-19T11:53:27.369Z,102178.14
2023-02-19T11:55:55.577Z,102181.40
2023-02-19T11:58:21.150Z,102180.58
2023-02-19T12:00:34.652Z,102182.91
2023-02-19T12:03:12.584Z,102182.35
2023-02-19T12:05:39.024Z,102177.27
2023-02-19T12:08:22.028Z,102189.77
2023-02-19T12:10:48.331Z,102187.90
2023-02-19T12:13:14.587Z,102189.69
2023-02-19T12:16:02.494Z,102194.63
2023-02-19T12:18:56.661Z,102198.84
2023-02-19T12:21:23.883Z,102193.22
2023-02-19T12:23:57.706Z,102187.60
2023-02-19T12:26:21.363Z,102206.07
2023-02-19T12:29:03.135Z,102230.27
2023-02-19T12:31:37.720Z,102238.94
2023-02-19T12:34:11.901Z,102235.77
2023-02-19T12:36:31.614Z,102240.23
2023-02-19T12:38:54.148Z,102242.33
2023-02-19T12:41:15.653Z,102243.50
2023-02-19T12:43:29.424Z,102240.71
2023-02-19T12:45:47.906Z,102244.19
2023-02-19T12:48:09.472Z,102231.94
2023-02-19T12:50:27.492Z,102226.77
2023-02-19T12:52:44.753Z,102230.29
2023-02-19T12:55:02.058Z,102234.45
2023-02-19T12:57:18.901Z,102231.60
2023-02-19T12:59:38.482Z,102243.51
2023-02-19T13:01:59.900Z,102243.25
2023-02-19T13:04:31.226Z,102239.63
2023-02-19T13:06:48.714Z,102243.75
2023-02-19T13:09:07.855Z,102236.95
2023-02-19T13:11:26.630Z,102244.34
2023-02-19T13:13:44.914Z,102241.69
2023-02-19T13:15:59.837Z,102245.34
2023-02-19T13:18:22.914Z,102246.48
2023-02-19T13:20:39.005Z,102250.50
2023-02-19T13:23:15.764Z,102250.17
2023-02-19T13:25:40.156Z,102253.00
2023-02-19T13:28:16.347Z,102253.16
2023-02-19T13:30:51.211Z,102251.41
2023-02-19T13:33:17.892Z,102252.29
2023-02-19T13:35:56.020Z,102252.19
2023-02-19T13:38:13.483Z,102249.25
2023-02-19T13:40:36.149Z,102246.15
2023-02-19T13:42:57.818Z,102244.59
2023-02-19T13:45:24.863Z,102241.04
2023-02-19T13:48:02.399Z,102235.06
2023-02-19T13:50:24.204Z,102239.52
2023-02-19T13:52:45.432Z,102244.20
2023-02-19T13:55:18.411Z,102238.70
2023-02-19T13:57:35.308Z,102247.02
2023-02-19T13:59:49.592Z,102247.30
2023-02-19T14:02:28.541Z,102249.13
2023-02-19T14:04:54.058Z,102245.02
2023-02-19T14:07:48.135Z,102244.92
2023-02-19T14:10:02.905Z,102250.02
2023-02-19T14:12:33.897Z,102253.31
2023-02-19T14:14:47.389Z,102251.72
2023-02-19T14:17:05.991Z,102253.03
2023-02-19T14:19:41.823Z,102255.20
2023-02-19T14:21:55.616Z,102255.68
2023-02-19T14:24:13.114Z,102255.62
2023-02-19T14:26:25.962Z,102254.62
2023-02-19T14:28:47.742Z,102252.38
2023-02-19T14:31:02.470Z,102257.20
2023-02-19T14:33:18.729Z,102255.58
2023-02-19T14:35:38.098Z,102256.55
2023-02-19T14:37:51.334Z,102257.80
2023-02-19T14:40:05.706Z,102249.92
2023-02-19T14:42:26.128Z,102254.64
2023-02-19T14:44:50.280Z,102246.57
2023-02-19T14:47:07.582Z,102247.95
2023-02-19T14:49:24.498Z,102249.40
2023-02-19T14:51:42.482Z,102249.71
2023-02-19T14:53:56.820Z,102258.25
2023-02-19T14:56:19.717Z,102261.17
2023-02-19T14:58:37.999Z,102269.92
2023-02-19T15:00:51.987Z,102276.89
2023-02-19T15:03:06.892Z,102277.86
2023-02-19T15:05:26.953Z,102280.52
2023-02-19T15:07:40.391Z,102281.94
2023-02-19T15:09:58.063Z,102283.98
2023-02-19T15:12:17.296Z,102289.79
2023-02-19T15:14:33.496Z,102292.38
2023-02-19T15:16:46.626Z,102294.16
2023-02-19T15:19:03.995Z,102295.46
2023-02-19T15:21:29.604Z,102290.40
2023-02-19T15:23:45.908Z,102281.48
2023-02-19T15:26:00.000Z,102284.10
2023-02-19T15:28:35.487Z,102282.61
2023-02-19T15:30:49.362Z,102283.05
2023-02-19T15:33:07.001Z,102281.42
2023-02-19T15:35:28.473Z,102284.35
2023-02-19T15:37:43.656Z,102294.95
2023-02-19T15:39:58.685Z,102301.73
2023-02-19T15:42:13.919Z,102300.42
2023-02-19T15:44:40.752Z,102303.86
2023-02-19T15:46:53.884Z,102304.99
2023-02-19T15:49:11.431Z,102307.05
2023-02-19T15:51:31.040Z,102303.99
2023-02-19T15:53:48.780Z,102294.50
2023-02-19T15:56:07.142Z,102292.95
2023-02-19T15:58:26.061Z,102295.50
2023-02-19T16:00:44.954Z,102298.09
2023-02-19T16:02:57.886Z,102293.34
2023-02-19T16:05:19.110Z,102285.34
2023-02-19T16:07:34.826Z,102284.00
2023-02-19T16:09:48.397Z,102278.04
2023-02-19T16:12:03.319Z,102275.42
2023-02-19T16:14:36.186Z,102277.98
2023-02-19T16:16:52.502Z,102281.33
2023-02-19T16:19:07.050Z,102287.04
2023-02-19T16:21:24.900Z,102288.94
2023-02-19T16:23:38.620Z,102289.74
2023-02-19T16:25:52.788Z,102289.08
2023-02-19T16:28:12.781Z,102293.10
2023-02-19T16:30:35.135Z,102290.95
2023-02-19T16:32:48.138Z,102289.98
2023-02-19T16:35:02.094Z,102285.27
2023-02-19T16:37:41.182Z,102274.87
2023-02-19T16:40:16.746Z,102264.88
2023-02-19T16:42:30.415Z,102266.44
2023-02-19T16:44:44.191Z,102264.23
2023-02-19T16:47:00.347Z,102269.04
2023-02-19T16:49:15.938Z,102275.86
2023-02-19T16:51:31.510Z,102277.36
2023-02-19T16:53:45.012Z,102284.03
2023-02-19T16:55:58.493Z,102294.06
2023-02-19T16:58:12.365Z,102297.35
2023-02-19T17:00:28.373Z,102295.86
2023-02-19T17:02:42.691Z,102287.60
2023-02-19T17:04:57.468Z,102285.58
2023-02-19T17:07:12.554Z,102274.12
2023-02-19T17:09:26.403Z,102270.76
2023-02-19T17:11:40.718Z,102273.58
2023-02-19T17:13:54.963Z,102279.51
2023-02-19T17:16:08.960Z,102289.48
2023-02-19T17:18:23.079Z,102293.30
2023-02-19T17:20:38.893Z,102304.16
2023-02-19T17:22:52.184Z,102314.17
2023-02-19T17:25:07.466Z,102321.02
2023-02-19T17:27:21.347Z,102327.15
2023-02-19T17:29:36.301Z,102331.73
2023-02-19T17:31:49.674Z,102329.42
2023-02-19T17:34:06.113Z,102331.11
2023-02-19T17:36:23.250Z,102327.23
2023-02-19T17:38:36.020Z,102329.06
2023-02-19T17:40:49.357Z,102325.89
2023-02-19T17:43:03.412Z,102327.82
2023-02-19T17:45:18.326Z,102334.77
2023-02-19T17:47:33.131Z,102336.48
2023-02-19T17:49:48.984Z,102338.07
2023-02-19T17:52:02.483Z,102342.66
2023-02-19T17:54:15.633Z,102345.90
2023-02-19T17:56:30.587Z,102343.39
2023-02-19T17:58:44.259Z,102338.90
2023-02-19T18:00:57.915Z,102342.67
2023-02-19T18:03:12.211Z,102341.55
2023-02-19T18:05:27.841Z,102340.89
2023-02-19T18:07:42.191Z,102346.47
2023-02-19T18:09:57.113Z,102352.73
2023-02-19T18:12:12.297Z,102359.34
2023-02-19T18:14:26.574Z,102364.95
2023-02-19T18:16:39.783Z,102366.21
2023-02-19T18:18:52.995Z,102366.24
2023-02-19T18:21:06.095Z,102363.97
2023-02-19T18:23:22.411Z,102369.00
2023-02-19T18:25:37.592Z,102373.14
2023-02-19T18:27:50.561Z,102379.16
2023-02-19T18:30:04.238Z,102377.02
2023-02-19T18:32:17.874Z,102369.25
2023-02-19T18:34:31.195Z,102373.74
2023-02-19T18:36:47.582Z,102381.59
2023-02-19T18:39:00.474Z,102389.85
2023-02-19T18:41:20.026Z,102386.17
2023-02-19T18:43:34.013Z,102380.45
2023-02-19T18:45:48.084Z,102376.52
2023-02-19T18:48:02.133Z,102367.16
2023-02-19T18:50:17.589Z,102368.30
2023-02-19T18:52:32.030Z,102377.02
2023-02-19T18:54:46.174Z,102383.73
2023-02-19T18:57:01.684Z,102385.00
2023-02-19T18:59:15.075Z,102382.83
2023-02-19T19:01:30.126Z,102378.69
2023-02-19T19:03:43.257Z,102377.27
2023-02-19T19:05:57.303Z,102380.09
2023-02-19T19:08:11.464Z,102380.19
2023-02-19T19:10:25.732Z,102379.20
2023-02-19T19:12:39.581Z,102373.37
2023-02-19T19:14:53.666Z,102373.45
2023-02-19T19:17:07.484Z,102374.40
2023-02-19T19:19:20.788Z,102376.75
2023-02-19T19:21:34.005Z,102370.41
2023-02-19T19:23:48.060Z,102359.66
2023-02-19T19:26:01.982Z,102350.94
2023-02-19T19:28:14.811Z,102336.63
2023-02-19T19:30:28.522Z,102341.13
2023-02-19T19:32:41.131Z,102340.67
2023-02-19T19:34:54.533Z,102340.33
2023-02-19T19:37:07.986Z,102339.05
2023-02-19T19:39:21.337Z,102338.80
2023-02-19T19:41:34.066Z,102337.55
2023-02-19T19:43:47.439Z,102336.54
2023-02-19T19:46:00.311Z,102330.89
2023-02-19T19:48:14.507Z,102323.16
2023-02-19T19:50:27.853Z,102325.26
2023-02-19T19:52:40.494Z,102326.23
2023-02-19T19:54:55.189Z,102332.45
2023-02-19T19:57:07.691Z,102336.05
2023-02-19T19:59:21.787Z,102331.96
2023-02-19T20:01:35.187Z,102329.20
2023-02-19T20:03:48.686Z,102321.05
2023-02-19T20:06:02.259Z,102319.23
2023-02-19T20:08:14.972Z,102313.41
2023-02-19T20:10:28.370Z,102306.27
2023-02-19T20:12:42.509Z,102310.23
2023-02-19T20:14:55.350Z,102305.71
2023-02-19T20:17:10.756Z,102305.45
2023-02-19T20:19:25.414Z,102306.02
2023-02-19T20:21:38.174Z,102305.68
2023-02-19T20:23:51.125Z,102310.20
2023-02-19T20:26:06.338Z,102316.48
2023-02-19T20:28:20.548Z,102307.64
2023-02-19T20:30:35.238Z,102301.52
2023-02-19T20:32:47.996Z,102298.96
2023-02-19T20:35:00.724Z,102292.75
2023-02-19T20:37:15.023Z,102293.18
2023-02-19T20:39:31.901Z,102293.34
2023-02-19T20:41:47.496Z,102303.02
2023-02-19T20:44:00.323Z,102311.92
2023-02-19T20:46:13.348Z,102311.23
2023-02-19T20:48:26.320Z,102316.11
2023-02-19T20:50:40.193Z,102324.63
2023-02-19T20:52:54.363Z,102325.85
2023-02-19T20:55:07.440Z,102317.54
2023-02-19T20:57:20.983Z,102307.33
2023-02-19T20:59:37.650Z,102291.92
2023-02-19T21:01:51.862Z,102274.86
2023-02-19T21:04:04.961Z,102256.27
2023-02-19T21:06:18.083Z,102247.06
2023-02-19T21:08:31.512Z,102254.58
2023-02-19T21:10:45.404Z,102263.41
2023-02-19T21:12:58.699Z,102271.52
2023-02-19T21:15:13.099Z,102278.48
2023-02-19T21:17:26.385Z,102279.34
2023-02-19T21:19:39.822Z,102273.20
2023-02-19T21:21:53.463Z,102273.02
2023-02-19T21:24:08.385Z,102269.72
2023-02-19T21:26:22.120Z,102262.42
2023-02-19T21:28:34.660Z,102243.86
2023-02-19T21:30:49.031Z,102229.42
2023-02-19T21:33:01.674Z,102229.71
2023-02-19T21:35:14.738Z,102225.47
2023-02-19T21:37:27.554Z,102227.45
2023-02-19T21:39:44.054Z,102241.20
2023-02-19T21:41:56.805Z,102234.74
2023-02-19T21:44:10.326Z,102231.30
2023-02-19T21:46:26.114Z,102229.17
2023-02-19T21:48:38.662Z,102236.48
2023-02-19T21:50:51.554Z,102247.48
2023-02-19T21:53:06.591Z,102251.08
2023-02-19T21:55:21.406Z,102245.13
2023-02-19T21:57:36.518Z,102239.63
2023-02-19T21:59:49.109Z,102240.02
2023-02-19T22:02:01.598Z,102241.30
2023-02-19T22:04:17.078Z,102237.98
2023-02-19T22:06:32.820Z,102249.84
2023-02-19T22:08:45.504Z,102252.20
2023-02-19T22:10:58.231Z,102259.42
2023-02-19T22:13:10.847Z,102272.50
2023-02-19T22:15:24.932Z,102275.14
2023-02-19T22:17:38.294Z,102277.52
2023-02-19T22:19:50.735Z,102281.65
2023-02-19T22:22:03.411Z,102269.63
2023-02-19T22:24:21.892Z,102266.94
2023-02-19T22:26:35.718Z,102269.44
2023-02-19T22:28:48.751Z,102278.20
2023-02-19T22:31:02.345Z,102277.68
2023-02-19T22:33:15.713Z,102273.45
2023-02-19T22:35:29.190Z,102274.70
2023-02-19T22:37:42.168Z,102268.79
2023-02-19T22:39:57.027Z,102255.94
2023-02-19T22:42:10.872Z,102253.77
2023-02-19T22:44:24.914Z,102246.94
2023-02-19T22:46:38.210Z,102238.48
2023-02-19T22:48:51.980Z,102215.73
2023-02-19T22:51:05.976Z,102226.23
2023-02-19T22:53:19.585Z,102212.84
2023-02-19T22:55:34.849Z,102207.89
2023-02-19T22:57:48.777Z,102210.48
2023-02-19T23:00:02.073Z,102208.45
2023-02-19T23:02:14.606Z,102217.14
2023-02-19T23:04:28.406Z,102227.02
2023-02-19T23:06:45.367Z,102227.17
2023-02-19T23:08:59.397Z,102231.25
2023-02-19T23:11:12.621Z,102240.86
2023-02-19T23:13:25.526Z,102236.38
2023-02-19T23:15:39.155Z,102235.41
2023-02-19T23:17:52.967Z,102232.17
2023-02-19T23:20:06.943Z,102230.48
2023-02-19T23:22:21.640Z,102236.90
2023-02-19T23:24:35.045Z,102241.10
2023-02-19T23:26:51.315Z,102242.10
2023-02-19T23:29:04.056Z,102237.96
2023-02-19T23:31:18.546Z,102237.55
2023-02-19T23:33:32.692Z,102231.04
2023-02-19T23:35:45.326Z,102237.72
2023-02-19T23:37:59.468Z,102238.65
2023-02-19T23:40:13.637Z,102231.97
2023-02-19T23:42:27.522Z,102222.27
2023-02-19T23:44:40.118Z,102223.45
2023-02-19T23:46:54.261Z,102229.78
2023-02-19T23:49:09.970Z,102237.23
2023-02-19T23:51:24.196Z,102235.20
2023-02-19T23:53:37.816Z,102237.51
2023-02-19T23:55:52.753Z,102241.58
2023-02-19T23:58:06.890Z,102245.36
